sensor_id;sensor_type;location;lat;lon;timestamp;temperature;humidity
16511;DHT22;8368;48.772;8.754;2023-05-23T00:01:45;15.90;99.90
16511;DHT22;8368;48.772;8.754;2023-05-23T00:04:11;15.90;99.90
16511;DHT22;8368;48.772;8.754;2023-05-23T00:06:43;15.90;99.90
16511;DHT22;8368;48.772;8.754;2023-05-23T00:09:15;15.90;99.90
16511;DHT22;8368;48.772;8.754;2023-05-23T00:11:41;16.00;99.90
16511;DHT22;8368;48.772;8.754;2023-05-23T00:14:13;16.00;99.90
16511;DHT22;8368;48.772;8.754;2023-05-23T00:16:43;16.00;99.90
16511;DHT22;8368;48.772;8.754;2023-05-23T00:19:11;16.00;99.90
16511;DHT22;8368;48.772;8.754;2023-05-23T00:21:39;16.00;99.90
16511;DHT22;8368;48.772;8.754;2023-05-23T00:24:05;16.00;99.90
16511;DHT22;8368;48.772;8.754;2023-05-23T00:26:31;16.00;99.90
16511;DHT22;8368;48.772;8.754;2023-05-23T00:28:57;16.00;99.90
16511;DHT22;8368;48.772;8.754;2023-05-23T00:31:23;16.00;99.90
16511;DHT22;8368;48.772;8.754;2023-05-23T00:33:48;15.90;99.90
16511;DHT22;8368;48.772;8.754;2023-05-23T00:36:14;15.90;99.90
16511;DHT22;8368;48.772;8.754;2023-05-23T00:38:39;15.90;99.90
16511;DHT22;8368;48.772;8.754;2023-05-23T00:41:05;15.90;99.90
16511;DHT22;8368;48.772;8.754;2023-05-23T00:43:31;15.90;99.90
16511;DHT22;8368;48.772;8.754;2023-05-23T00:45:57;15.90;99.90
16511;DHT22;8368;48.772;8.754;2023-05-23T00:48:24;15.90;99.90
16511;DHT22;8368;48.772;8.754;2023-05-23T00:50:50;15.90;99.90
16511;DHT22;8368;48.772;8.754;2023-05-23T00:53:16;16.00;99.90
16511;DHT22;8368;48.772;8.754;2023-05-23T00:55:43;16.00;99.90
16511;DHT22;8368;48.772;8.754;2023-05-23T00:58:09;15.90;99.90
16511;DHT22;8368;48.772;8.754;2023-05-23T01:00:35;15.90;99.90
16511;DHT22;8368;48.772;8.754;2023-05-23T01:03:03;15.90;99.90
16511;DHT22;8368;48.772;8.754;2023-05-23T01:05:29;15.90;99.90
16511;DHT22;8368;48.772;8.754;2023-05-23T01:07:55;15.90;99.90
16511;DHT22;8368;48.772;8.754;2023-05-23T01:10:24;15.90;99.90
16511;DHT22;8368;48.772;8.754;2023-05-23T01:13:16;15.90;99.90
16511;DHT22;8368;48.772;8.754;2023-05-23T01:18:34;15.90;99.90
16511;DHT22;8368;48.772;8.754;2023-05-23T01:21:11;15.90;99.90
16511;DHT22;8368;48.772;8.754;2023-05-23T01:24:01;15.80;99.90
16511;DHT22;8368;48.772;8.754;2023-05-23T01:28:57;15.80;99.90
16511;DHT22;8368;48.772;8.754;2023-05-23T01:31:26;15.80;99.90
16511;DHT22;8368;48.772;8.754;2023-05-23T01:33:54;15.80;99.90
16511;DHT22;8368;48.772;8.754;2023-05-23T01:36:20;15.80;99.90
16511;DHT22;8368;48.772;8.754;2023-05-23T01:38:46;15.80;99.90
16511;DHT22;8368;48.772;8.754;2023-05-23T01:41:12;15.80;99.90
16511;DHT22;8368;48.772;8.754;2023-05-23T01:43:37;15.80;99.90
16511;DHT22;8368;48.772;8.754;2023-05-23T01:46:03;15.70;99.90
16511;DHT22;8368;48.772;8.754;2023-05-23T01:48:30;15.70;99.90
16511;DHT22;8368;48.772;8.754;2023-05-23T01:50:56;15.70;99.90
16511;DHT22;8368;48.772;8.754;2023-05-23T01:53:23;15.70;99.90
16511;DHT22;8368;48.772;8.754;2023-05-23T01:55:50;15.70;99.90
16511;DHT22;8368;48.772;8.754;2023-05-23T01:58:16;15.70;99.90
16511;DHT22;8368;48.772;8.754;2023-05-23T02:00:42;15.70;99.90
16511;DHT22;8368;48.772;8.754;2023-05-23T02:03:07;15.70;99.90
16511;DHT22;8368;48.772;8.754;2023-05-23T02:05:33;15.70;99.90
16511;DHT22;8368;48.772;8.754;2023-05-23T02:07:58;15.60;99.90
16511;DHT22;8368;48.772;8.754;2023-05-23T02:10:25;15.60;99.90
16511;DHT22;8368;48.772;8.754;2023-05-23T02:12:50;15.60;99.90
16511;DHT22;8368;48.772;8.754;2023-05-23T02:15:16;15.60;99.90
16511;DHT22;8368;48.772;8.754;2023-05-23T02:17:41;15.60;99.90
16511;DHT22;8368;48.772;8.754;2023-05-23T02:20:07;15.60;99.90
16511;DHT22;8368;48.772;8.754;2023-05-23T02:22:34;15.60;99.90
16511;DHT22;8368;48.772;8.754;2023-05-23T02:25:00;15.60;99.90
16511;DHT22;8368;48.772;8.754;2023-05-23T02:27:25;15.60;99.90
16511;DHT22;8368;48.772;8.754;2023-05-23T02:29:51;15.60;99.90
16511;DHT22;8368;48.772;8.754;2023-05-23T02:32:16;15.60;99.90
16511;DHT22;8368;48.772;8.754;2023-05-23T02:34:42;15.60;99.90
16511;DHT22;8368;48.772;8.754;2023-05-23T02:37:12;15.60;99.90
16511;DHT22;8368;48.772;8.754;2023-05-23T02:39:38;15.60;99.90
16511;DHT22;8368;48.772;8.754;2023-05-23T02:42:03;15.60;99.90
16511;DHT22;8368;48.772;8.754;2023-05-23T02:44:29;15.60;99.90
16511;DHT22;8368;48.772;8.754;2023-05-23T02:46:54;15.60;99.90
16511;DHT22;8368;48.772;8.754;2023-05-23T02:49:20;15.60;99.90
16511;DHT22;8368;48.772;8.754;2023-05-23T02:51:45;15.70;99.90
16511;DHT22;8368;48.772;8.754;2023-05-23T02:54:11;15.60;99.90
16511;DHT22;8368;48.772;8.754;2023-05-23T02:56:37;15.60;99.90
16511;DHT22;8368;48.772;8.754;2023-05-23T02:59:03;15.60;99.90
16511;DHT22;8368;48.772;8.754;2023-05-23T03:01:28;15.60;99.90
16511;DHT22;8368;48.772;8.754;2023-05-23T03:03:54;15.60;99.90
16511;DHT22;8368;48.772;8.754;2023-05-23T03:06:20;15.50;99.90
16511;DHT22;8368;48.772;8.754;2023-05-23T03:08:47;15.60;99.90
16511;DHT22;8368;48.772;8.754;2023-05-23T03:11:12;15.50;99.90
16511;DHT22;8368;48.772;8.754;2023-05-23T03:13:38;15.50;99.90
16511;DHT22;8368;48.772;8.754;2023-05-23T03:16:03;15.50;99.90
16511;DHT22;8368;48.772;8.754;2023-05-23T03:18:29;15.50;99.90
16511;DHT22;8368;48.772;8.754;2023-05-23T03:20:55;15.40;99.90
16511;DHT22;8368;48.772;8.754;2023-05-23T03:23:20;15.50;99.90
16511;DHT22;8368;48.772;8.754;2023-05-23T03:25:46;15.50;99.90
16511;DHT22;8368;48.772;8.754;2023-05-23T03:28:11;15.50;99.90
16511;DHT22;8368;48.772;8.754;2023-05-23T03:30:37;15.40;99.90
16511;DHT22;8368;48.772;8.754;2023-05-23T03:33:03;15.40;99.90
16511;DHT22;8368;48.772;8.754;2023-05-23T03:35:29;15.50;99.90
16511;DHT22;8368;48.772;8.754;2023-05-23T03:37:54;15.40;99.90
16511;DHT22;8368;48.772;8.754;2023-05-23T03:40:20;15.40;99.90
16511;DHT22;8368;48.772;8.754;2023-05-23T03:42:47;15.40;99.90
16511;DHT22;8368;48.772;8.754;2023-05-23T03:45:12;15.40;99.90
16511;DHT22;8368;48.772;8.754;2023-05-23T03:47:38;15.40;99.90
16511;DHT22;8368;48.772;8.754;2023-05-23T03:50:04;15.40;99.90
16511;DHT22;8368;48.772;8.754;2023-05-23T03:52:30;15.30;99.90
16511;DHT22;8368;48.772;8.754;2023-05-23T03:54:55;15.40;99.90
16511;DHT22;8368;48.772;8.754;2023-05-23T03:57:21;15.30;99.90
16511;DHT22;8368;48.772;8.754;2023-05-23T03:59:47;15.40;99.90
16511;DHT22;8368;48.772;8.754;2023-05-23T04:02:12;15.30;99.90
16511;DHT22;8368;48.772;8.754;2023-05-23T04:04:38;15.30;99.90
16511;DHT22;8368;48.772;8.754;2023-05-23T04:07:04;15.30;99.90
16511;DHT22;8368;48.772;8.754;2023-05-23T04:09:30;15.30;99.90
16511;DHT22;8368;48.772;8.754;2023-05-23T04:11:56;15.30;99.90
16511;DHT22;8368;48.772;8.754;2023-05-23T04:14:21;15.30;99.90
16511;DHT22;8368;48.772;8.754;2023-05-23T04:16:48;15.30;99.90
16511;DHT22;8368;48.772;8.754;2023-05-23T04:19:14;15.30;99.90
16511;DHT22;8368;48.772;8.754;2023-05-23T04:21:40;15.30;99.90
16511;DHT22;8368;48.772;8.754;2023-05-23T04:24:06;15.20;99.90
16511;DHT22;8368;48.772;8.754;2023-05-23T04:26:32;15.20;99.90
16511;DHT22;8368;48.772;8.754;2023-05-23T04:28:58;15.10;99.90
16511;DHT22;8368;48.772;8.754;2023-05-23T04:31:23;15.10;99.90
16511;DHT22;8368;48.772;8.754;2023-05-23T04:33:49;15.10;99.90
16511;DHT22;8368;48.772;8.754;2023-05-23T04:36:15;15.10;99.90
16511;DHT22;8368;48.772;8.754;2023-05-23T04:38:40;15.00;99.90
16511;DHT22;8368;48.772;8.754;2023-05-23T04:41:06;15.00;99.90
16511;DHT22;8368;48.772;8.754;2023-05-23T04:43:34;15.00;99.90
16511;DHT22;8368;48.772;8.754;2023-05-23T04:46:02;15.00;99.90
16511;DHT22;8368;48.772;8.754;2023-05-23T04:48:28;15.00;99.90
16511;DHT22;8368;48.772;8.754;2023-05-23T04:50:53;15.00;99.90
16511;DHT22;8368;48.772;8.754;2023-05-23T04:53:21;15.00;99.90
16511;DHT22;8368;48.772;8.754;2023-05-23T04:55:46;14.90;99.90
16511;DHT22;8368;48.772;8.754;2023-05-23T04:58:12;14.90;99.90
16511;DHT22;8368;48.772;8.754;2023-05-23T05:00:37;14.90;99.90
16511;DHT22;8368;48.772;8.754;2023-05-23T05:03:03;14.90;99.90
16511;DHT22;8368;48.772;8.754;2023-05-23T05:05:29;14.90;99.90
16511;DHT22;8368;48.772;8.754;2023-05-23T05:07:54;14.90;99.90
16511;DHT22;8368;48.772;8.754;2023-05-23T05:10:20;14.90;99.90
16511;DHT22;8368;48.772;8.754;2023-05-23T05:12:46;14.90;99.90
16511;DHT22;8368;48.772;8.754;2023-05-23T05:15:15;14.90;99.90
16511;DHT22;8368;48.772;8.754;2023-05-23T05:17:42;14.90;99.90
16511;DHT22;8368;48.772;8.754;2023-05-23T05:20:08;14.90;99.90
16511;DHT22;8368;48.772;8.754;2023-05-23T05:22:35;14.90;99.90
16511;DHT22;8368;48.772;8.754;2023-05-23T05:25:01;14.90;99.90
16511;DHT22;8368;48.772;8.754;2023-05-23T05:27:28;14.90;99.90
16511;DHT22;8368;48.772;8.754;2023-05-23T05:29:53;14.80;99.90
16511;DHT22;8368;48.772;8.754;2023-05-23T05:32:22;14.80;99.90
16511;DHT22;8368;48.772;8.754;2023-05-23T05:34:48;14.80;99.90
16511;DHT22;8368;48.772;8.754;2023-05-23T05:37:15;14.70;99.90
16511;DHT22;8368;48.772;8.754;2023-05-23T05:39:40;14.70;99.90
16511;DHT22;8368;48.772;8.754;2023-05-23T05:42:06;14.80;99.90
16511;DHT22;8368;48.772;8.754;2023-05-23T05:44:32;14.70;99.90
16511;DHT22;8368;48.772;8.754;2023-05-23T05:46:57;14.70;99.90
16511;DHT22;8368;48.772;8.754;2023-05-23T05:49:23;14.70;99.90
16511;DHT22;8368;48.772;8.754;2023-05-23T05:51:48;14.70;99.90
16511;DHT22;8368;48.772;8.754;2023-05-23T05:54:14;14.70;99.90
16511;DHT22;8368;48.772;8.754;2023-05-23T05:56:40;14.80;99.90
16511;DHT22;8368;48.772;8.754;2023-05-23T05:59:06;14.70;99.90
16511;DHT22;8368;48.772;8.754;2023-05-23T06:01:32;14.70;99.90
16511;DHT22;8368;48.772;8.754;2023-05-23T06:03:59;14.70;99.90
16511;DHT22;8368;48.772;8.754;2023-05-23T06:06:25;14.80;99.90
16511;DHT22;8368;48.772;8.754;2023-05-23T06:08:50;14.90;99.90
16511;DHT22;8368;48.772;8.754;2023-05-23T06:11:16;14.90;99.90
16511;DHT22;8368;48.772;8.754;2023-05-23T06:13:41;15.00;99.90
16511;DHT22;8368;48.772;8.754;2023-05-23T06:16:07;15.10;99.90
16511;DHT22;8368;48.772;8.754;2023-05-23T06:18:33;15.10;99.90
16511;DHT22;8368;48.772;8.754;2023-05-23T06:20:59;15.20;99.90
16511;DHT22;8368;48.772;8.754;2023-05-23T06:23:24;15.20;99.90
16511;DHT22;8368;48.772;8.754;2023-05-23T06:25:50;15.20;99.90
16511;DHT22;8368;48.772;8.754;2023-05-23T06:28:15;15.20;99.90
16511;DHT22;8368;48.772;8.754;2023-05-23T06:30:41;15.20;99.90
16511;DHT22;8368;48.772;8.754;2023-05-23T06:33:06;15.20;99.90
16511;DHT22;8368;48.772;8.754;2023-05-23T06:35:32;15.20;99.90
16511;DHT22;8368;48.772;8.754;2023-05-23T06:37:57;15.20;99.90
16511;DHT22;8368;48.772;8.754;2023-05-23T06:40:23;15.20;99.90
16511;DHT22;8368;48.772;8.754;2023-05-23T06:42:49;15.10;99.90
16511;DHT22;8368;48.772;8.754;2023-05-23T06:45:14;15.10;99.90
16511;DHT22;8368;48.772;8.754;2023-05-23T06:47:40;14.90;99.90
16511;DHT22;8368;48.772;8.754;2023-05-23T06:50:10;14.90;99.90
16511;DHT22;8368;48.772;8.754;2023-05-23T06:52:35;14.80;99.90
16511;DHT22;8368;48.772;8.754;2023-05-23T06:55:01;14.80;99.90
16511;DHT22;8368;48.772;8.754;2023-05-23T06:57:26;14.70;99.90
16511;DHT22;8368;48.772;8.754;2023-05-23T07:02:21;14.60;99.90
16511;DHT22;8368;48.772;8.754;2023-05-23T07:04:47;14.60;99.90
16511;DHT22;8368;48.772;8.754;2023-05-23T07:07:13;14.60;99.90
16511;DHT22;8368;48.772;8.754;2023-05-23T07:09:38;14.50;99.90
16511;DHT22;8368;48.772;8.754;2023-05-23T07:12:05;14.50;99.90
16511;DHT22;8368;48.772;8.754;2023-05-23T07:14:30;14.50;99.90
16511;DHT22;8368;48.772;8.754;2023-05-23T07:16:56;14.50;99.90
16511;DHT22;8368;48.772;8.754;2023-05-23T07:19:22;14.50;99.90
16511;DHT22;8368;48.772;8.754;2023-05-23T07:21:47;14.50;99.90
16511;DHT22;8368;48.772;8.754;2023-05-23T07:24:13;14.50;99.90
16511;DHT22;8368;48.772;8.754;2023-05-23T07:26:38;14.50;99.90
16511;DHT22;8368;48.772;8.754;2023-05-23T07:29:04;14.50;99.90
16511;DHT22;8368;48.772;8.754;2023-05-23T07:31:30;14.50;99.90
16511;DHT22;8368;48.772;8.754;2023-05-23T07:33:55;14.50;99.90
16511;DHT22;8368;48.772;8.754;2023-05-23T07:36:21;14.50;99.90
16511;DHT22;8368;48.772;8.754;2023-05-23T07:38:47;14.60;99.90
16511;DHT22;8368;48.772;8.754;2023-05-23T07:41:13;14.60;99.90
16511;DHT22;8368;48.772;8.754;2023-05-23T07:43:39;14.80;99.90
16511;DHT22;8368;48.772;8.754;2023-05-23T07:46:04;14.90;99.90
16511;DHT22;8368;48.772;8.754;2023-05-23T07:48:30;14.90;99.90
16511;DHT22;8368;48.772;8.754;2023-05-23T07:50:56;15.00;99.90
16511;DHT22;8368;48.772;8.754;2023-05-23T07:53:21;15.20;99.90
16511;DHT22;8368;48.772;8.754;2023-05-23T07:55:47;15.30;99.90
16511;DHT22;8368;48.772;8.754;2023-05-23T07:58:12;15.30;99.90
16511;DHT22;8368;48.772;8.754;2023-05-23T08:00:38;15.50;99.90
16511;DHT22;8368;48.772;8.754;2023-05-23T08:03:06;15.60;99.90
16511;DHT22;8368;48.772;8.754;2023-05-23T08:05:31;15.60;99.90
16511;DHT22;8368;48.772;8.754;2023-05-23T08:07:57;15.40;99.90
16511;DHT22;8368;48.772;8.754;2023-05-23T08:10:22;15.30;99.90
16511;DHT22;8368;48.772;8.754;2023-05-23T08:12:48;15.10;99.90
16511;DHT22;8368;48.772;8.754;2023-05-23T08:15:14;15.10;99.90
16511;DHT22;8368;48.772;8.754;2023-05-23T08:17:39;15.10;99.90
16511;DHT22;8368;48.772;8.754;2023-05-23T08:20:05;15.10;99.90
16511;DHT22;8368;48.772;8.754;2023-05-23T08:22:31;15.20;99.90
16511;DHT22;8368;48.772;8.754;2023-05-23T08:24:57;15.30;99.90
16511;DHT22;8368;48.772;8.754;2023-05-23T08:27:22;15.40;99.90
16511;DHT22;8368;48.772;8.754;2023-05-23T08:29:48;15.40;99.90
16511;DHT22;8368;48.772;8.754;2023-05-23T08:32:13;15.50;99.90
16511;DHT22;8368;48.772;8.754;2023-05-23T08:34:39;15.60;99.90
16511;DHT22;8368;48.772;8.754;2023-05-23T08:37:05;15.70;99.90
16511;DHT22;8368;48.772;8.754;2023-05-23T08:39:31;15.80;99.90
16511;DHT22;8368;48.772;8.754;2023-05-23T08:41:56;15.80;99.90
16511;DHT22;8368;48.772;8.754;2023-05-23T08:44:22;15.70;99.90
16511;DHT22;8368;48.772;8.754;2023-05-23T08:46:52;15.60;99.90
16511;DHT22;8368;48.772;8.754;2023-05-23T08:49:17;15.60;99.90
16511;DHT22;8368;48.772;8.754;2023-05-23T08:51:43;15.60;99.90
16511;DHT22;8368;48.772;8.754;2023-05-23T08:54:10;15.60;99.90
16511;DHT22;8368;48.772;8.754;2023-05-23T08:56:38;15.70;99.90
16511;DHT22;8368;48.772;8.754;2023-05-23T08:59:06;15.70;99.90
16511;DHT22;8368;48.772;8.754;2023-05-23T09:01:33;15.80;99.90
16511;DHT22;8368;48.772;8.754;2023-05-23T09:03:59;15.70;99.90
16511;DHT22;8368;48.772;8.754;2023-05-23T09:06:29;15.70;99.90
16511;DHT22;8368;48.772;8.754;2023-05-23T09:08:55;15.80;99.90
16511;DHT22;8368;48.772;8.754;2023-05-23T09:11:21;15.60;99.90
16511;DHT22;8368;48.772;8.754;2023-05-23T09:13:48;15.50;99.90
16511;DHT22;8368;48.772;8.754;2023-05-23T09:16:15;15.60;99.90
16511;DHT22;8368;48.772;8.754;2023-05-23T09:18:43;15.60;99.90
16511;DHT22;8368;48.772;8.754;2023-05-23T09:21:10;15.70;99.90
16511;DHT22;8368;48.772;8.754;2023-05-23T09:23:38;15.80;99.90
16511;DHT22;8368;48.772;8.754;2023-05-23T09:26:09;15.80;99.90
16511;DHT22;8368;48.772;8.754;2023-05-23T09:28:36;15.70;99.90
16511;DHT22;8368;48.772;8.754;2023-05-23T09:31:06;15.60;99.90
16511;DHT22;8368;48.772;8.754;2023-05-23T09:33:48;15.70;99.90
16511;DHT22;8368;48.772;8.754;2023-05-23T09:36:14;15.80;99.90
16511;DHT22;8368;48.772;8.754;2023-05-23T09:38:42;16.00;99.90
16511;DHT22;8368;48.772;8.754;2023-05-23T09:41:09;16.10;99.90
16511;DHT22;8368;48.772;8.754;2023-05-23T09:43:38;16.30;99.90
16511;DHT22;8368;48.772;8.754;2023-05-23T09:46:11;16.30;99.90
16511;DHT22;8368;48.772;8.754;2023-05-23T09:48:37;16.40;99.90
16511;DHT22;8368;48.772;8.754;2023-05-23T09:51:04;16.20;99.90
16511;DHT22;8368;48.772;8.754;2023-05-23T09:53:30;16.10;99.90
16511;DHT22;8368;48.772;8.754;2023-05-23T09:55:58;16.00;99.90
16511;DHT22;8368;48.772;8.754;2023-05-23T09:58:25;16.20;99.90
16511;DHT22;8368;48.772;8.754;2023-05-23T10:00:52;16.30;99.90
16511;DHT22;8368;48.772;8.754;2023-05-23T10:03:32;16.60;99.90
16511;DHT22;8368;48.772;8.754;2023-05-23T10:06:10;16.80;99.90
16511;DHT22;8368;48.772;8.754;2023-05-23T10:08:40;17.00;99.90
16511;DHT22;8368;48.772;8.754;2023-05-23T10:13:42;16.90;99.90
16511;DHT22;8368;48.772;8.754;2023-05-23T10:16:14;16.90;99.90
16511;DHT22;8368;48.772;8.754;2023-05-23T10:18:44;17.00;99.90
16511;DHT22;8368;48.772;8.754;2023-05-23T10:21:18;17.00;99.90
16511;DHT22;8368;48.772;8.754;2023-05-23T10:23:46;17.10;99.90
16511;DHT22;8368;48.772;8.754;2023-05-23T10:26:12;17.30;99.90
16511;DHT22;8368;48.772;8.754;2023-05-23T10:28:39;17.70;99.90
16511;DHT22;8368;48.772;8.754;2023-05-23T10:31:06;17.90;99.90
16511;DHT22;8368;48.772;8.754;2023-05-23T10:33:37;17.90;99.90
16511;DHT22;8368;48.772;8.754;2023-05-23T10:36:18;17.70;99.90
16511;DHT22;8368;48.772;8.754;2023-05-23T10:39:01;17.30;99.90
16511;DHT22;8368;48.772;8.754;2023-05-23T10:41:35;17.30;99.90
16511;DHT22;8368;48.772;8.754;2023-05-23T10:44:11;17.60;99.90
16511;DHT22;8368;48.772;8.754;2023-05-23T10:46:55;17.60;99.90
16511;DHT22;8368;48.772;8.754;2023-05-23T10:52:04;17.40;99.90
16511;DHT22;8368;48.772;8.754;2023-05-23T10:54:52;17.40;99.90
16511;DHT22;8368;48.772;8.754;2023-05-23T10:57:20;17.20;99.90
16511;DHT22;8368;48.772;8.754;2023-05-23T10:59:46;17.30;99.90
16511;DHT22;8368;48.772;8.754;2023-05-23T11:02:15;17.20;99.90
16511;DHT22;8368;48.772;8.754;2023-05-23T11:04:42;17.00;99.90
16511;DHT22;8368;48.772;8.754;2023-05-23T11:07:30;17.00;99.90
16511;DHT22;8368;48.772;8.754;2023-05-23T11:10:09;17.00;99.90
16511;DHT22;8368;48.772;8.754;2023-05-23T11:12:43;17.20;99.90
16511;DHT22;8368;48.772;8.754;2023-05-23T11:15:18;17.40;99.90
16511;DHT22;8368;48.772;8.754;2023-05-23T11:17:56;17.50;99.90
16511;DHT22;8368;48.772;8.754;2023-05-23T11:20:24;17.60;99.90
16511;DHT22;8368;48.772;8.754;2023-05-23T11:22:54;17.70;99.90
16511;DHT22;8368;48.772;8.754;2023-05-23T11:25:41;17.80;99.90
16511;DHT22;8368;48.772;8.754;2023-05-23T11:28:08;17.60;99.90
16511;DHT22;8368;48.772;8.754;2023-05-23T11:30:35;17.60;99.90
16511;DHT22;8368;48.772;8.754;2023-05-23T11:33:08;17.50;99.90
16511;DHT22;8368;48.772;8.754;2023-05-23T11:35:36;17.70;99.90
16511;DHT22;8368;48.772;8.754;2023-05-23T11:38:03;17.70;99.90
16511;DHT22;8368;48.772;8.754;2023-05-23T11:42:57;17.60;99.90
16511;DHT22;8368;48.772;8.754;2023-05-23T11:45:24;17.60;99.90
16511;DHT22;8368;48.772;8.754;2023-05-23T11:47:50;17.60;99.90
16511;DHT22;8368;48.772;8.754;2023-05-23T11:50:15;17.60;99.90
16511;DHT22;8368;48.772;8.754;2023-05-23T11:52:41;17.60;99.90
16511;DHT22;8368;48.772;8.754;2023-05-23T11:55:08;17.40;99.90
16511;DHT22;8368;48.772;8.754;2023-05-23T11:57:37;17.50;99.90
16511;DHT22;8368;48.772;8.754;2023-05-23T12:00:06;17.80;99.90
16511;DHT22;8368;48.772;8.754;2023-05-23T12:02:38;18.20;99.90
16511;DHT22;8368;48.772;8.754;2023-05-23T12:05:08;18.40;99.90
16511;DHT22;8368;48.772;8.754;2023-05-23T12:07:35;18.50;99.90
16511;DHT22;8368;48.772;8.754;2023-05-23T12:10:03;18.70;99.90
16511;DHT22;8368;48.772;8.754;2023-05-23T12:12:30;18.60;99.90
16511;DHT22;8368;48.772;8.754;2023-05-23T12:14:56;18.60;99.90
16511;DHT22;8368;48.772;8.754;2023-05-23T12:17:22;18.40;99.90
16511;DHT22;8368;48.772;8.754;2023-05-23T12:19:48;18.60;99.90
16511;DHT22;8368;48.772;8.754;2023-05-23T12:22:14;19.00;99.90
16511;DHT22;8368;48.772;8.754;2023-05-23T12:24:44;18.60;99.90
16511;DHT22;8368;48.772;8.754;2023-05-23T12:27:13;18.20;99.90
16511;DHT22;8368;48.772;8.754;2023-05-23T12:29:41;18.10;99.90
16511;DHT22;8368;48.772;8.754;2023-05-23T12:32:07;18.10;99.90
16511;DHT22;8368;48.772;8.754;2023-05-23T12:34:32;17.90;99.90
16511;DHT22;8368;48.772;8.754;2023-05-23T12:36:59;18.10;99.90
16511;DHT22;8368;48.772;8.754;2023-05-23T12:39:28;18.10;99.90
16511;DHT22;8368;48.772;8.754;2023-05-23T12:42:05;18.30;99.90
16511;DHT22;8368;48.772;8.754;2023-05-23T12:44:31;18.60;99.90
16511;DHT22;8368;48.772;8.754;2023-05-23T12:46:57;18.80;99.90
16511;DHT22;8368;48.772;8.754;2023-05-23T12:49:23;19.00;99.90
16511;DHT22;8368;48.772;8.754;2023-05-23T12:51:48;19.20;99.90
16511;DHT22;8368;48.772;8.754;2023-05-23T12:54:14;19.30;99.90
16511;DHT22;8368;48.772;8.754;2023-05-23T12:56:39;19.30;99.90
16511;DHT22;8368;48.772;8.754;2023-05-23T12:59:05;19.60;99.90
16511;DHT22;8368;48.772;8.754;2023-05-23T13:01:31;19.80;99.90
16511;DHT22;8368;48.772;8.754;2023-05-23T13:03:58;20.20;99.90
16511;DHT22;8368;48.772;8.754;2023-05-23T13:06:24;21.00;99.90
16511;DHT22;8368;48.772;8.754;2023-05-23T13:08:50;20.90;99.90
16511;DHT22;8368;48.772;8.754;2023-05-23T13:11:16;20.20;99.90
16511;DHT22;8368;48.772;8.754;2023-05-23T13:13:42;19.50;99.90
16511;DHT22;8368;48.772;8.754;2023-05-23T13:16:08;19.00;99.90
16511;DHT22;8368;48.772;8.754;2023-05-23T13:18:33;18.40;99.90
16511;DHT22;8368;48.772;8.754;2023-05-23T13:20:59;18.00;99.90
16511;DHT22;8368;48.772;8.754;2023-05-23T13:23:25;17.80;99.90
16511;DHT22;8368;48.772;8.754;2023-05-23T13:25:52;17.70;99.90
16511;DHT22;8368;48.772;8.754;2023-05-23T13:28:17;17.60;99.90
16511;DHT22;8368;48.772;8.754;2023-05-23T13:30:43;17.40;99.90
16511;DHT22;8368;48.772;8.754;2023-05-23T13:33:08;17.20;99.90
16511;DHT22;8368;48.772;8.754;2023-05-23T13:35:34;17.10;99.90
16511;DHT22;8368;48.772;8.754;2023-05-23T13:37:59;16.90;99.90
16511;DHT22;8368;48.772;8.754;2023-05-23T13:40:25;16.80;99.90
16511;DHT22;8368;48.772;8.754;2023-05-23T13:42:50;16.70;99.90
16511;DHT22;8368;48.772;8.754;2023-05-23T13:45:17;16.60;99.90
16511;DHT22;8368;48.772;8.754;2023-05-23T13:47:43;16.70;99.90
16511;DHT22;8368;48.772;8.754;2023-05-23T13:50:09;16.70;99.90
16511;DHT22;8368;48.772;8.754;2023-05-23T13:52:35;16.80;99.90
16511;DHT22;8368;48.772;8.754;2023-05-23T13:55:02;17.00;99.90
16511;DHT22;8368;48.772;8.754;2023-05-23T13:57:28;17.20;99.90
16511;DHT22;8368;48.772;8.754;2023-05-23T13:59:54;17.50;99.90
16511;DHT22;8368;48.772;8.754;2023-05-23T14:02:19;17.70;99.90
16511;DHT22;8368;48.772;8.754;2023-05-23T14:04:47;18.10;99.90
16511;DHT22;8368;48.772;8.754;2023-05-23T14:07:13;18.80;99.90
16511;DHT22;8368;48.772;8.754;2023-05-23T14:09:38;19.70;99.90
16511;DHT22;8368;48.772;8.754;2023-05-23T14:12:04;20.10;99.90
16511;DHT22;8368;48.772;8.754;2023-05-23T14:14:30;20.50;99.90
16511;DHT22;8368;48.772;8.754;2023-05-23T14:16:56;20.70;99.90
16511;DHT22;8368;48.772;8.754;2023-05-23T14:19:22;20.70;99.90
16511;DHT22;8368;48.772;8.754;2023-05-23T14:21:47;20.60;99.90
16511;DHT22;8368;48.772;8.754;2023-05-23T14:24:13;20.40;99.90
16511;DHT22;8368;48.772;8.754;2023-05-23T14:26:38;20.40;99.90
16511;DHT22;8368;48.772;8.754;2023-05-23T14:29:04;20.80;99.90
16511;DHT22;8368;48.772;8.754;2023-05-23T14:31:29;21.20;99.90
16511;DHT22;8368;48.772;8.754;2023-05-23T14:33:55;21.20;99.90
16511;DHT22;8368;48.772;8.754;2023-05-23T14:36:20;21.10;99.90
16511;DHT22;8368;48.772;8.754;2023-05-23T14:38:46;21.20;99.90
16511;DHT22;8368;48.772;8.754;2023-05-23T14:41:14;21.50;99.90
16511;DHT22;8368;48.772;8.754;2023-05-23T14:43:40;21.70;99.90
16511;DHT22;8368;48.772;8.754;2023-05-23T14:46:05;21.60;99.90
16511;DHT22;8368;48.772;8.754;2023-05-23T14:48:31;21.00;99.90
16511;DHT22;8368;48.772;8.754;2023-05-23T14:50:57;20.20;99.90
16511;DHT22;8368;48.772;8.754;2023-05-23T14:53:29;19.70;99.90
16511;DHT22;8368;48.772;8.754;2023-05-23T14:55:55;19.20;99.90
16511;DHT22;8368;48.772;8.754;2023-05-23T14:58:21;18.90;99.90
16511;DHT22;8368;48.772;8.754;2023-05-23T15:00:47;18.60;99.90
16511;DHT22;8368;48.772;8.754;2023-05-23T15:03:13;18.40;99.90
16511;DHT22;8368;48.772;8.754;2023-05-23T15:05:39;18.50;99.90
16511;DHT22;8368;48.772;8.754;2023-05-23T15:08:05;18.60;99.90
16511;DHT22;8368;48.772;8.754;2023-05-23T15:10:30;18.70;99.90
16511;DHT22;8368;48.772;8.754;2023-05-23T15:12:56;18.80;99.90
16511;DHT22;8368;48.772;8.754;2023-05-23T15:15:22;19.10;99.90
16511;DHT22;8368;48.772;8.754;2023-05-23T15:17:49;19.30;99.90
16511;DHT22;8368;48.772;8.754;2023-05-23T15:20:15;19.50;99.90
16511;DHT22;8368;48.772;8.754;2023-05-23T15:22:41;19.50;99.90
16511;DHT22;8368;48.772;8.754;2023-05-23T15:25:07;19.20;99.90
16511;DHT22;8368;48.772;8.754;2023-05-23T15:27:33;18.90;99.90
16511;DHT22;8368;48.772;8.754;2023-05-23T15:29:58;19.00;99.90
16511;DHT22;8368;48.772;8.754;2023-05-23T15:32:24;18.70;99.90
16511;DHT22;8368;48.772;8.754;2023-05-23T15:34:50;18.50;99.90
16511;DHT22;8368;48.772;8.754;2023-05-23T15:37:16;18.40;99.90
16511;DHT22;8368;48.772;8.754;2023-05-23T15:39:42;18.40;99.90
16511;DHT22;8368;48.772;8.754;2023-05-23T15:42:07;18.20;99.90
16511;DHT22;8368;48.772;8.754;2023-05-23T15:44:33;18.20;99.90
16511;DHT22;8368;48.772;8.754;2023-05-23T15:46:58;18.30;99.90
16511;DHT22;8368;48.772;8.754;2023-05-23T15:49:24;18.50;99.90
16511;DHT22;8368;48.772;8.754;2023-05-23T15:51:49;18.60;99.90
16511;DHT22;8368;48.772;8.754;2023-05-23T15:54:15;18.60;99.90
16511;DHT22;8368;48.772;8.754;2023-05-23T15:56:41;18.70;99.90
16511;DHT22;8368;48.772;8.754;2023-05-23T15:59:07;19.00;99.90